DAUG

Noumérat - Moufdi Zakaria Airport

Ghardaïa, Algeria
METAR DAUG 230300Z 05004KT CAVOK 20/12 Q1017
Observed Flight Rules
May-23 @ 03:00 UTC (21 minutes ago) Visual Flight Rules
Wind Visibility Clouds
50° at 4 knots 10,000+ meters
  • Clear skies
Temperatures Readings
Current 20°C / 68°F
Dewpoint 12°C / 54°F
Humidity 60%
Altimeter 30.03" Hg
Pressure 1017 hPa
Elevation 450
METAR DAUG 230300Z 05004KT CAVOK 20/12 Q1017
Observed Flight Rules
May-23 @ 03:00 UTC
(21 minutes ago)
VFR
Wind Visibility
50° at 4 knots 10,000+ meters
Clouds
  • Clear skies
Temperature Dewpoint
20°C / 68°F 12°C / 54°F
Humidity Altimeter Pressure
60% 30.03" Hg 1017 hPa